sensor_id;sensor_type;location;lat;lon;timestamp;P1;durP1;ratioP1;P2;durP2;ratioP2
49444;SDS011;35323;43.080;-81.378;2022-09-09T00:04:30;2.58;;;1.80;;
49444;SDS011;35323;43.080;-81.378;2022-09-09T00:09:35;4.20;;;2.80;;
49444;SDS011;35323;43.080;-81.378;2022-09-09T00:12:11;2.28;;;2.08;;
49444;SDS011;35323;43.080;-81.378;2022-09-09T00:20:12;1.98;;;1.80;;
49444;SDS011;35323;43.080;-81.378;2022-09-09T00:22:43;3.90;;;2.13;;
49444;SDS011;35323;43.080;-81.378;2022-09-09T00:25:19;3.70;;;2.28;;
49444;SDS011;35323;43.080;-81.378;2022-09-09T00:27:49;2.38;;;2.10;;
49444;SDS011;35323;43.080;-81.378;2022-09-09T00:32:59;2.17;;;1.98;;
49444;SDS011;35323;43.080;-81.378;2022-09-09T00:35:34;2.08;;;1.90;;
49444;SDS011;35323;43.080;-81.378;2022-09-09T00:38:14;2.95;;;2.65;;
49444;SDS011;35323;43.080;-81.378;2022-09-09T00:40:49;2.50;;;2.30;;
49444;SDS011;35323;43.080;-81.378;2022-09-09T00:48:33;2.10;;;1.98;;
49444;SDS011;35323;43.080;-81.378;2022-09-09T00:51:08;6.65;;;2.05;;
49444;SDS011;35323;43.080;-81.378;2022-09-09T00:53:59;2.55;;;2.25;;
49444;SDS011;35323;43.080;-81.378;2022-09-09T00:56:43;17.55;;;2.72;;
49444;SDS011;35323;43.080;-81.378;2022-09-09T00:59:16;2.33;;;2.10;;
49444;SDS011;35323;43.080;-81.378;2022-09-09T01:01:53;3.55;;;2.50;;
49444;SDS011;35323;43.080;-81.378;2022-09-09T01:04:27;4.40;;;2.40;;
49444;SDS011;35323;43.080;-81.378;2022-09-09T01:07:01;3.65;;;3.28;;
49444;SDS011;35323;43.080;-81.378;2022-09-09T01:14:32;2.53;;;2.08;;
49444;SDS011;35323;43.080;-81.378;2022-09-09T01:17:08;2.67;;;2.25;;
49444;SDS011;35323;43.080;-81.378;2022-09-09T01:22:35;2.90;;;2.10;;
49444;SDS011;35323;43.080;-81.378;2022-09-09T01:25:12;3.38;;;3.08;;
49444;SDS011;35323;43.080;-81.378;2022-09-09T01:27:42;3.83;;;2.70;;
49444;SDS011;35323;43.080;-81.378;2022-09-09T01:30:14;3.33;;;3.03;;
49444;SDS011;35323;43.080;-81.378;2022-09-09T01:32:47;3.38;;;2.38;;
49444;SDS011;35323;43.080;-81.378;2022-09-09T01:37:47;4.40;;;2.58;;
49444;SDS011;35323;43.080;-81.378;2022-09-09T01:40:14;4.25;;;2.83;;
49444;SDS011;35323;43.080;-81.378;2022-09-09T01:42:42;2.65;;;2.45;;
49444;SDS011;35323;43.080;-81.378;2022-09-09T01:45:10;3.45;;;2.72;;
49444;SDS011;35323;43.080;-81.378;2022-09-09T01:47:37;2.50;;;2.22;;
49444;SDS011;35323;43.080;-81.378;2022-09-09T01:50:05;2.47;;;2.28;;
49444;SDS011;35323;43.080;-81.378;2022-09-09T01:52:34;2.72;;;2.53;;
49444;SDS011;35323;43.080;-81.378;2022-09-09T01:55:06;2.70;;;2.50;;
49444;SDS011;35323;43.080;-81.378;2022-09-09T01:57:38;3.83;;;3.17;;
49444;SDS011;35323;43.080;-81.378;2022-09-09T02:05:45;3.33;;;2.30;;
49444;SDS011;35323;43.080;-81.378;2022-09-09T02:08:17;3.80;;;2.80;;
49444;SDS011;35323;43.080;-81.378;2022-09-09T02:13:16;3.30;;;2.75;;
49444;SDS011;35323;43.080;-81.378;2022-09-09T02:18:25;6.45;;;3.50;;
49444;SDS011;35323;43.080;-81.378;2022-09-09T02:20:54;4.13;;;2.85;;
49444;SDS011;35323;43.080;-81.378;2022-09-09T02:23:23;7.07;;;2.67;;
49444;SDS011;35323;43.080;-81.378;2022-09-09T02:25:51;2.70;;;2.28;;
49444;SDS011;35323;43.080;-81.378;2022-09-09T02:28:20;3.00;;;2.70;;
49444;SDS011;35323;43.080;-81.378;2022-09-09T02:30:51;4.65;;;2.65;;
49444;SDS011;35323;43.080;-81.378;2022-09-09T02:33:23;5.00;;;2.22;;
49444;SDS011;35323;43.080;-81.378;2022-09-09T02:35:52;3.05;;;2.70;;
49444;SDS011;35323;43.080;-81.378;2022-09-09T02:38:20;5.68;;;3.08;;
49444;SDS011;35323;43.080;-81.378;2022-09-09T02:40:49;4.45;;;3.47;;
49444;SDS011;35323;43.080;-81.378;2022-09-09T02:43:16;4.80;;;2.75;;
49444;SDS011;35323;43.080;-81.378;2022-09-09T02:45:48;4.60;;;2.88;;
49444;SDS011;35323;43.080;-81.378;2022-09-09T02:51:15;4.28;;;2.92;;
49444;SDS011;35323;43.080;-81.378;2022-09-09T02:53:58;3.47;;;3.17;;
49444;SDS011;35323;43.080;-81.378;2022-09-09T02:56:27;5.18;;;3.33;;
49444;SDS011;35323;43.080;-81.378;2022-09-09T02:58:57;3.00;;;2.72;;
49444;SDS011;35323;43.080;-81.378;2022-09-09T03:01:24;3.35;;;3.05;;
49444;SDS011;35323;43.080;-81.378;2022-09-09T03:03:52;3.47;;;2.92;;
49444;SDS011;35323;43.080;-81.378;2022-09-09T03:06:22;5.00;;;3.38;;
49444;SDS011;35323;43.080;-81.378;2022-09-09T03:08:49;4.07;;;3.65;;
49444;SDS011;35323;43.080;-81.378;2022-09-09T03:11:16;6.05;;;3.20;;
49444;SDS011;35323;43.080;-81.378;2022-09-09T03:13:44;5.00;;;3.95;;
49444;SDS011;35323;43.080;-81.378;2022-09-09T03:16:11;4.05;;;3.30;;
49444;SDS011;35323;43.080;-81.378;2022-09-09T03:18:39;5.82;;;3.35;;
49444;SDS011;35323;43.080;-81.378;2022-09-09T03:21:06;4.25;;;3.33;;
49444;SDS011;35323;43.080;-81.378;2022-09-09T03:23:34;4.20;;;3.80;;
49444;SDS011;35323;43.080;-81.378;2022-09-09T03:26:02;4.85;;;3.67;;
49444;SDS011;35323;43.080;-81.378;2022-09-09T03:28:30;4.13;;;3.67;;
49444;SDS011;35323;43.080;-81.378;2022-09-09T03:30:59;4.03;;;3.17;;
49444;SDS011;35323;43.080;-81.378;2022-09-09T03:33:27;4.35;;;3.95;;
49444;SDS011;35323;43.080;-81.378;2022-09-09T03:35:55;3.85;;;3.47;;
49444;SDS011;35323;43.080;-81.378;2022-09-09T03:38:25;6.53;;;4.30;;
49444;SDS011;35323;43.080;-81.378;2022-09-09T03:40:54;6.40;;;3.45;;
49444;SDS011;35323;43.080;-81.378;2022-09-09T03:43:23;3.83;;;3.45;;
49444;SDS011;35323;43.080;-81.378;2022-09-09T03:45:50;3.95;;;3.65;;
49444;SDS011;35323;43.080;-81.378;2022-09-09T03:48:18;3.95;;;3.65;;
49444;SDS011;35323;43.080;-81.378;2022-09-09T03:50:47;5.63;;;3.13;;
49444;SDS011;35323;43.080;-81.378;2022-09-09T03:53:15;2.97;;;2.72;;
49444;SDS011;35323;43.080;-81.378;2022-09-09T03:55:44;4.28;;;3.97;;
49444;SDS011;35323;43.080;-81.378;2022-09-09T03:58:13;5.38;;;3.95;;
49444;SDS011;35323;43.080;-81.378;2022-09-09T04:00:41;3.78;;;2.95;;
49444;SDS011;35323;43.080;-81.378;2022-09-09T04:03:10;3.75;;;3.50;;
49444;SDS011;35323;43.080;-81.378;2022-09-09T04:05:39;3.67;;;3.35;;
49444;SDS011;35323;43.080;-81.378;2022-09-09T04:08:09;3.85;;;3.55;;
49444;SDS011;35323;43.080;-81.378;2022-09-09T04:10:36;3.30;;;3.03;;
49444;SDS011;35323;43.080;-81.378;2022-09-09T04:13:04;9.77;;;4.72;;
49444;SDS011;35323;43.080;-81.378;2022-09-09T04:15:32;6.53;;;3.72;;
49444;SDS011;35323;43.080;-81.378;2022-09-09T04:18:00;5.05;;;4.53;;
49444;SDS011;35323;43.080;-81.378;2022-09-09T04:20:28;4.55;;;3.85;;
49444;SDS011;35323;43.080;-81.378;2022-09-09T04:22:57;4.30;;;3.53;;
49444;SDS011;35323;43.080;-81.378;2022-09-09T04:25:25;3.72;;;3.42;;
49444;SDS011;35323;43.080;-81.378;2022-09-09T04:27:56;3.83;;;3.20;;
49444;SDS011;35323;43.080;-81.378;2022-09-09T04:30:24;4.53;;;4.13;;
49444;SDS011;35323;43.080;-81.378;2022-09-09T04:32:52;3.90;;;3.60;;
49444;SDS011;35323;43.080;-81.378;2022-09-09T04:35:19;4.65;;;4.25;;
49444;SDS011;35323;43.080;-81.378;2022-09-09T04:37:47;4.68;;;3.80;;
49444;SDS011;35323;43.080;-81.378;2022-09-09T04:40:15;5.32;;;4.63;;
49444;SDS011;35323;43.080;-81.378;2022-09-09T05:04:12;4.60;;;4.20;;
49444;SDS011;35323;43.080;-81.378;2022-09-09T06:48:38;4.95;;;4.55;;
49444;SDS011;35323;43.080;-81.378;2022-09-09T07:37:24;5.10;;;4.60;;
49444;SDS011;35323;43.080;-81.378;2022-09-09T07:39:51;4.43;;;3.75;;
49444;SDS011;35323;43.080;-81.378;2022-09-09T07:42:20;3.10;;;2.80;;
49444;SDS011;35323;43.080;-81.378;2022-09-09T07:44:49;5.25;;;3.80;;
49444;SDS011;35323;43.080;-81.378;2022-09-09T07:47:16;4.97;;;3.45;;
49444;SDS011;35323;43.080;-81.378;2022-09-09T07:49:44;4.00;;;3.70;;
49444;SDS011;35323;43.080;-81.378;2022-09-09T07:52:13;4.43;;;3.95;;
49444;SDS011;35323;43.080;-81.378;2022-09-09T07:54:45;3.28;;;2.97;;
49444;SDS011;35323;43.080;-81.378;2022-09-09T07:57:13;3.40;;;3.10;;
49444;SDS011;35323;43.080;-81.378;2022-09-09T07:59:42;6.05;;;4.25;;
49444;SDS011;35323;43.080;-81.378;2022-09-09T08:02:09;3.70;;;3.40;;
49444;SDS011;35323;43.080;-81.378;2022-09-09T08:04:38;4.53;;;4.00;;
49444;SDS011;35323;43.080;-81.378;2022-09-09T08:07:07;4.60;;;3.83;;
49444;SDS011;35323;43.080;-81.378;2022-09-09T08:09:35;7.65;;;4.18;;
49444;SDS011;35323;43.080;-81.378;2022-09-09T08:12:02;6.50;;;4.72;;
49444;SDS011;35323;43.080;-81.378;2022-09-09T08:14:30;5.28;;;4.72;;
49444;SDS011;35323;43.080;-81.378;2022-09-09T08:16:58;9.18;;;5.18;;
49444;SDS011;35323;43.080;-81.378;2022-09-09T08:19:25;5.63;;;4.55;;
49444;SDS011;35323;43.080;-81.378;2022-09-09T08:21:56;6.50;;;5.13;;
49444;SDS011;35323;43.080;-81.378;2022-09-09T08:24:23;7.78;;;5.10;;
49444;SDS011;35323;43.080;-81.378;2022-09-09T08:26:51;4.50;;;4.00;;
49444;SDS011;35323;43.080;-81.378;2022-09-09T08:29:19;6.63;;;4.57;;
49444;SDS011;35323;43.080;-81.378;2022-09-09T08:31:50;5.20;;;4.72;;
49444;SDS011;35323;43.080;-81.378;2022-09-09T08:34:18;6.63;;;4.72;;
49444;SDS011;35323;43.080;-81.378;2022-09-09T08:36:47;6.60;;;5.55;;
49444;SDS011;35323;43.080;-81.378;2022-09-09T08:39:17;5.97;;;5.38;;
49444;SDS011;35323;43.080;-81.378;2022-09-09T08:49:57;6.32;;;4.53;;
49444;SDS011;35323;43.080;-81.378;2022-09-09T14:38:21;3.45;;;2.88;;
49444;SDS011;35323;43.080;-81.378;2022-09-09T14:48:47;1.75;;;1.65;;
49444;SDS011;35323;43.080;-81.378;2022-09-09T14:51:18;1.50;;;1.40;;
49444;SDS011;35323;43.080;-81.378;2022-09-09T15:01:45;2.00;;;1.58;;
49444;SDS011;35323;43.080;-81.378;2022-09-09T15:04:13;3.58;;;1.55;;
49444;SDS011;35323;43.080;-81.378;2022-09-09T15:06:47;2.25;;;1.58;;
49444;SDS011;35323;43.080;-81.378;2022-09-09T15:09:16;3.10;;;2.63;;
49444;SDS011;35323;43.080;-81.378;2022-09-09T15:11:46;4.00;;;1.60;;
49444;SDS011;35323;43.080;-81.378;2022-09-09T15:14:13;4.40;;;2.05;;
49444;SDS011;35323;43.080;-81.378;2022-09-09T15:16:41;1.40;;;0.90;;
49444;SDS011;35323;43.080;-81.378;2022-09-09T15:19:08;0.95;;;0.88;;
49444;SDS011;35323;43.080;-81.378;2022-09-09T15:21:36;1.42;;;1.33;;
49444;SDS011;35323;43.080;-81.378;2022-09-09T15:24:05;1.63;;;1.52;;
49444;SDS011;35323;43.080;-81.378;2022-09-09T15:26:35;2.78;;;2.53;;
49444;SDS011;35323;43.080;-81.378;2022-09-09T15:29:05;1.27;;;1.17;;
49444;SDS011;35323;43.080;-81.378;2022-09-09T15:36:49;5.63;;;1.67;;
49444;SDS011;35323;43.080;-81.378;2022-09-09T15:39:17;1.73;;;1.63;;
49444;SDS011;35323;43.080;-81.378;2022-09-09T15:41:45;1.73;;;1.48;;
49444;SDS011;35323;43.080;-81.378;2022-09-09T15:44:14;3.58;;;1.85;;
49444;SDS011;35323;43.080;-81.378;2022-09-09T15:46:46;0.93;;;0.93;;
49444;SDS011;35323;43.080;-81.378;2022-09-09T15:49:23;1.52;;;1.42;;
49444;SDS011;35323;43.080;-81.378;2022-09-09T15:51:55;1.63;;;1.10;;
49444;SDS011;35323;43.080;-81.378;2022-09-09T15:54:25;2.00;;;1.40;;
49444;SDS011;35323;43.080;-81.378;2022-09-09T15:56:54;1.25;;;1.20;;
49444;SDS011;35323;43.080;-81.378;2022-09-09T15:59:24;1.17;;;1.08;;
49444;SDS011;35323;43.080;-81.378;2022-09-09T16:01:52;1.60;;;1.38;;
49444;SDS011;35323;43.080;-81.378;2022-09-09T16:04:21;1.40;;;1.30;;
49444;SDS011;35323;43.080;-81.378;2022-09-09T16:09:20;3.33;;;1.85;;
49444;SDS011;35323;43.080;-81.378;2022-09-09T16:11:48;2.30;;;1.67;;
49444;SDS011;35323;43.080;-81.378;2022-09-09T16:14:15;1.30;;;1.10;;
49444;SDS011;35323;43.080;-81.378;2022-09-09T16:16:45;2.22;;;1.55;;
49444;SDS011;35323;43.080;-81.378;2022-09-09T16:19:13;1.25;;;1.15;;
49444;SDS011;35323;43.080;-81.378;2022-09-09T16:21:42;2.15;;;1.77;;
49444;SDS011;35323;43.080;-81.378;2022-09-09T16:24:11;2.00;;;1.30;;
49444;SDS011;35323;43.080;-81.378;2022-09-09T16:26:41;2.28;;;1.40;;
49444;SDS011;35323;43.080;-81.378;2022-09-09T16:29:12;3.10;;;1.65;;
49444;SDS011;35323;43.080;-81.378;2022-09-09T16:31:40;1.08;;;1.05;;
49444;SDS011;35323;43.080;-81.378;2022-09-09T16:34:08;2.65;;;1.25;;
49444;SDS011;35323;43.080;-81.378;2022-09-09T17:26:29;1.85;;;1.10;;
49444;SDS011;35323;43.080;-81.378;2022-09-09T17:28:57;1.30;;;0.98;;
49444;SDS011;35323;43.080;-81.378;2022-09-09T17:31:25;1.25;;;1.05;;
49444;SDS011;35323;43.080;-81.378;2022-09-09T17:33:53;1.48;;;1.30;;
49444;SDS011;35323;43.080;-81.378;2022-09-09T17:36:39;1.42;;;1.20;;
49444;SDS011;35323;43.080;-81.378;2022-09-09T17:39:06;2.50;;;1.05;;
49444;SDS011;35323;43.080;-81.378;2022-09-09T17:41:35;1.30;;;1.20;;
49444;SDS011;35323;43.080;-81.378;2022-09-09T18:27:08;1.67;;;1.20;;
49444;SDS011;35323;43.080;-81.378;2022-09-09T18:29:35;2.25;;;1.15;;
49444;SDS011;35323;43.080;-81.378;2022-09-09T18:32:03;0.75;;;0.68;;
49444;SDS011;35323;43.080;-81.378;2022-09-09T18:34:30;5.50;;;1.02;;
49444;SDS011;35323;43.080;-81.378;2022-09-09T18:36:58;1.20;;;1.08;;
49444;SDS011;35323;43.080;-81.378;2022-09-09T18:39:27;1.48;;;1.38;;
49444;SDS011;35323;43.080;-81.378;2022-09-09T18:44:36;1.10;;;0.95;;
49444;SDS011;35323;43.080;-81.378;2022-09-09T18:47:03;2.00;;;1.58;;
49444;SDS011;35323;43.080;-81.378;2022-09-09T19:21:48;1.05;;;1.00;;
49444;SDS011;35323;43.080;-81.378;2022-09-09T19:24:28;1.52;;;1.20;;
49444;SDS011;35323;43.080;-81.378;2022-09-09T19:45:56;0.70;;;0.70;;
49444;SDS011;35323;43.080;-81.378;2022-09-09T19:48:24;0.77;;;0.77;;
49444;SDS011;35323;43.080;-81.378;2022-09-09T19:50:53;1.50;;;1.30;;
49444;SDS011;35323;43.080;-81.378;2022-09-09T19:53:20;1.40;;;1.17;;
49444;SDS011;35323;43.080;-81.378;2022-09-09T19:55:48;1.30;;;1.20;;
49444;SDS011;35323;43.080;-81.378;2022-09-09T19:58:19;1.23;;;0.77;;
49444;SDS011;35323;43.080;-81.378;2022-09-09T20:00:46;2.03;;;0.75;;
49444;SDS011;35323;43.080;-81.378;2022-09-09T20:03:14;2.63;;;0.88;;
49444;SDS011;35323;43.080;-81.378;2022-09-09T20:05:45;1.60;;;0.93;;
49444;SDS011;35323;43.080;-81.378;2022-09-09T20:08:15;0.60;;;0.60;;
49444;SDS011;35323;43.080;-81.378;2022-09-09T20:10:52;0.73;;;0.60;;
49444;SDS011;35323;43.080;-81.378;2022-09-09T20:13:20;0.82;;;0.80;;
49444;SDS011;35323;43.080;-81.378;2022-09-09T20:15:57;0.93;;;0.88;;
49444;SDS011;35323;43.080;-81.378;2022-09-09T20:18:27;1.20;;;0.85;;
49444;SDS011;35323;43.080;-81.378;2022-09-09T20:20:58;1.10;;;1.00;;
49444;SDS011;35323;43.080;-81.378;2022-09-09T20:23:26;0.80;;;0.70;;
49444;SDS011;35323;43.080;-81.378;2022-09-09T20:25:55;0.73;;;0.68;;
49444;SDS011;35323;43.080;-81.378;2022-09-09T20:28:22;1.00;;;0.90;;
49444;SDS011;35323;43.080;-81.378;2022-09-09T20:30:50;1.17;;;1.00;;
49444;SDS011;35323;43.080;-81.378;2022-09-09T20:49:28;2.10;;;1.45;;
49444;SDS011;35323;43.080;-81.378;2022-09-09T20:51:56;2.17;;;1.40;;
49444;SDS011;35323;43.080;-81.378;2022-09-09T20:54:24;1.67;;;1.00;;
49444;SDS011;35323;43.080;-81.378;2022-09-09T20:56:53;1.55;;;1.05;;
49444;SDS011;35323;43.080;-81.378;2022-09-09T20:59:22;0.80;;;0.80;;
49444;SDS011;35323;43.080;-81.378;2022-09-09T21:01:50;3.78;;;1.48;;
49444;SDS011;35323;43.080;-81.378;2022-09-09T21:04:19;1.83;;;1.05;;
49444;SDS011;35323;43.080;-81.378;2022-09-09T21:06:47;1.67;;;1.02;;
49444;SDS011;35323;43.080;-81.378;2022-09-09T21:09:16;1.75;;;1.00;;
49444;SDS011;35323;43.080;-81.378;2022-09-09T21:11:44;1.02;;;0.90;;
49444;SDS011;35323;43.080;-81.378;2022-09-09T21:14:13;7.25;;;1.83;;
49444;SDS011;35323;43.080;-81.378;2022-09-09T21:16:41;5.10;;;1.75;;
49444;SDS011;35323;43.080;-81.378;2022-09-09T21:19:09;1.27;;;1.15;;
49444;SDS011;35323;43.080;-81.378;2022-09-09T21:21:36;1.13;;;0.93;;
49444;SDS011;35323;43.080;-81.378;2022-09-09T21:24:04;1.17;;;0.85;;
49444;SDS011;35323;43.080;-81.378;2022-09-09T21:26:31;1.15;;;1.05;;
49444;SDS011;35323;43.080;-81.378;2022-09-09T21:28:59;2.38;;;1.45;;
49444;SDS011;35323;43.080;-81.378;2022-09-09T21:31:26;2.13;;;2.03;;
49444;SDS011;35323;43.080;-81.378;2022-09-09T21:33:55;1.75;;;1.58;;
49444;SDS011;35323;43.080;-81.378;2022-09-09T21:36:22;1.42;;;0.70;;
49444;SDS011;35323;43.080;-81.378;2022-09-09T21:38:50;1.60;;;1.42;;
49444;SDS011;35323;43.080;-81.378;2022-09-09T21:41:17;0.75;;;0.75;;
49444;SDS011;35323;43.080;-81.378;2022-09-09T21:43:49;3.17;;;1.05;;
49444;SDS011;35323;43.080;-81.378;2022-09-09T21:46:17;2.58;;;1.10;;
49444;SDS011;35323;43.080;-81.378;2022-09-09T21:48:45;1.83;;;0.80;;
49444;SDS011;35323;43.080;-81.378;2022-09-09T21:51:13;1.42;;;1.08;;
49444;SDS011;35323;43.080;-81.378;2022-09-09T21:53:41;1.75;;;1.00;;
49444;SDS011;35323;43.080;-81.378;2022-09-09T21:56:10;1.73;;;1.38;;
49444;SDS011;35323;43.080;-81.378;2022-09-09T21:58:38;1.10;;;1.00;;
49444;SDS011;35323;43.080;-81.378;2022-09-09T22:01:11;1.10;;;1.00;;
49444;SDS011;35323;43.080;-81.378;2022-09-09T22:03:39;1.33;;;1.23;;
49444;SDS011;35323;43.080;-81.378;2022-09-09T22:06:09;1.90;;;1.13;;
49444;SDS011;35323;43.080;-81.378;2022-09-09T22:08:38;1.42;;;1.33;;
49444;SDS011;35323;43.080;-81.378;2022-09-09T22:11:07;1.27;;;1.17;;
49444;SDS011;35323;43.080;-81.378;2022-09-09T22:13:35;1.63;;;1.20;;
49444;SDS011;35323;43.080;-81.378;2022-09-09T22:16:05;6.85;;;1.33;;
49444;SDS011;35323;43.080;-81.378;2022-09-09T22:18:33;2.97;;;1.27;;
49444;SDS011;35323;43.080;-81.378;2022-09-09T22:31:41;2.80;;;1.20;;
49444;SDS011;35323;43.080;-81.378;2022-09-09T22:48:09;2.03;;;0.80;;
49444;SDS011;35323;43.080;-81.378;2022-09-09T22:50:38;2.20;;;1.15;;
49444;SDS011;35323;43.080;-81.378;2022-09-09T22:53:08;1.38;;;1.08;;
49444;SDS011;35323;43.080;-81.378;2022-09-09T22:55:37;1.70;;;1.38;;
49444;SDS011;35323;43.080;-81.378;2022-09-09T22:58:04;1.88;;;1.60;;
49444;SDS011;35323;43.080;-81.378;2022-09-09T23:00:32;1.30;;;1.05;;
49444;SDS011;35323;43.080;-81.378;2022-09-09T23:03:00;3.00;;;1.38;;
49444;SDS011;35323;43.080;-81.378;2022-09-09T23:05:27;0.88;;;0.70;;
49444;SDS011;35323;43.080;-81.378;2022-09-09T23:07:56;1.13;;;0.98;;
49444;SDS011;35323;43.080;-81.378;2022-09-09T23:10:24;3.55;;;1.33;;
49444;SDS011;35323;43.080;-81.378;2022-09-09T23:23:35;2.47;;;1.20;;
49444;SDS011;35323;43.080;-81.378;2022-09-09T23:26:04;5.13;;;1.75;;
49444;SDS011;35323;43.080;-81.378;2022-09-09T23:28:34;1.95;;;0.98;;
49444;SDS011;35323;43.080;-81.378;2022-09-09T23:31:05;2.92;;;1.30;;
49444;SDS011;35323;43.080;-81.378;2022-09-09T23:36:02;1.20;;;0.82;;
49444;SDS011;35323;43.080;-81.378;2022-09-09T23:38:30;1.48;;;1.13;;
49444;SDS011;35323;43.080;-81.378;2022-09-09T23:41:01;1.13;;;1.02;;
49444;SDS011;35323;43.080;-81.378;2022-09-09T23:43:29;2.53;;;1.42;;
